sensor_id;sensor_type;location;lat;lon;timestamp;temperature;humidity
22795;DHT22;11564;50.920;11.612;2023-07-31T00:00:41;16.50;99.90
22795;DHT22;11564;50.920;11.612;2023-07-31T00:03:07;16.60;99.90
22795;DHT22;11564;50.920;11.612;2023-07-31T00:05:33;16.60;99.90
22795;DHT22;11564;50.920;11.612;2023-07-31T00:07:58;16.60;99.90
22795;DHT22;11564;50.920;11.612;2023-07-31T00:10:24;16.50;99.90
22795;DHT22;11564;50.920;11.612;2023-07-31T00:12:49;16.50;99.90
22795;DHT22;11564;50.920;11.612;2023-07-31T00:15:15;16.50;99.90
22795;DHT22;11564;50.920;11.612;2023-07-31T00:17:41;16.50;99.90
22795;DHT22;11564;50.920;11.612;2023-07-31T00:20:06;16.50;99.90
22795;DHT22;11564;50.920;11.612;2023-07-31T00:22:32;16.50;99.90
22795;DHT22;11564;50.920;11.612;2023-07-31T00:24:58;16.50;99.90
22795;DHT22;11564;50.920;11.612;2023-07-31T00:27:25;16.50;99.90
22795;DHT22;11564;50.920;11.612;2023-07-31T00:29:50;16.60;99.90
22795;DHT22;11564;50.920;11.612;2023-07-31T00:32:16;16.60;99.90
22795;DHT22;11564;50.920;11.612;2023-07-31T00:34:41;16.70;99.90
22795;DHT22;11564;50.920;11.612;2023-07-31T00:37:07;16.80;99.90
22795;DHT22;11564;50.920;11.612;2023-07-31T00:39:34;16.70;99.90
22795;DHT22;11564;50.920;11.612;2023-07-31T00:42:00;16.90;99.90
22795;DHT22;11564;50.920;11.612;2023-07-31T00:44:26;16.90;99.90
22795;DHT22;11564;50.920;11.612;2023-07-31T00:46:52;16.90;99.90
22795;DHT22;11564;50.920;11.612;2023-07-31T00:49:20;16.90;99.90
22795;DHT22;11564;50.920;11.612;2023-07-31T00:51:46;16.80;99.90
22795;DHT22;11564;50.920;11.612;2023-07-31T00:54:12;16.80;99.90
22795;DHT22;11564;50.920;11.612;2023-07-31T00:56:38;16.70;99.90
22795;DHT22;11564;50.920;11.612;2023-07-31T00:59:04;16.70;99.90
22795;DHT22;11564;50.920;11.612;2023-07-31T01:01:29;16.70;99.90
22795;DHT22;11564;50.920;11.612;2023-07-31T01:03:55;16.60;99.90
22795;DHT22;11564;50.920;11.612;2023-07-31T01:06:33;16.50;99.90
22795;DHT22;11564;50.920;11.612;2023-07-31T01:09:25;16.60;99.90
22795;DHT22;11564;50.920;11.612;2023-07-31T01:11:56;16.50;99.90
22795;DHT22;11564;50.920;11.612;2023-07-31T01:14:22;16.40;99.90
22795;DHT22;11564;50.920;11.612;2023-07-31T01:16:47;16.30;99.90
22795;DHT22;11564;50.920;11.612;2023-07-31T01:19:15;16.30;99.90
22795;DHT22;11564;50.920;11.612;2023-07-31T01:24:42;16.20;99.90
22795;DHT22;11564;50.920;11.612;2023-07-31T01:27:17;16.10;99.90
22795;DHT22;11564;50.920;11.612;2023-07-31T01:30:01;16.00;99.90
22795;DHT22;11564;50.920;11.612;2023-07-31T01:32:29;16.10;99.90
22795;DHT22;11564;50.920;11.612;2023-07-31T01:34:57;16.20;99.90
22795;DHT22;11564;50.920;11.612;2023-07-31T01:37:28;16.20;99.90
22795;DHT22;11564;50.920;11.612;2023-07-31T01:39:55;16.20;99.90
22795;DHT22;11564;50.920;11.612;2023-07-31T01:42:20;16.20;99.90
22795;DHT22;11564;50.920;11.612;2023-07-31T01:44:46;16.10;99.90
22795;DHT22;11564;50.920;11.612;2023-07-31T01:47:11;16.10;99.90
22795;DHT22;11564;50.920;11.612;2023-07-31T01:49:37;16.10;99.90
22795;DHT22;11564;50.920;11.612;2023-07-31T01:52:03;16.10;99.90
22795;DHT22;11564;50.920;11.612;2023-07-31T01:54:28;16.00;99.90
22795;DHT22;11564;50.920;11.612;2023-07-31T01:56:54;16.00;99.90
22795;DHT22;11564;50.920;11.612;2023-07-31T01:59:20;16.00;99.90
22795;DHT22;11564;50.920;11.612;2023-07-31T02:01:45;16.00;99.90
22795;DHT22;11564;50.920;11.612;2023-07-31T02:04:11;16.00;99.90
22795;DHT22;11564;50.920;11.612;2023-07-31T02:06:37;16.00;99.90
22795;DHT22;11564;50.920;11.612;2023-07-31T02:09:03;16.10;99.90
22795;DHT22;11564;50.920;11.612;2023-07-31T02:11:29;16.10;99.90
22795;DHT22;11564;50.920;11.612;2023-07-31T02:13:54;16.20;99.90
22795;DHT22;11564;50.920;11.612;2023-07-31T02:16:20;16.20;99.90
22795;DHT22;11564;50.920;11.612;2023-07-31T02:18:45;16.20;99.90
22795;DHT22;11564;50.920;11.612;2023-07-31T02:21:11;16.20;99.90
22795;DHT22;11564;50.920;11.612;2023-07-31T02:23:37;16.20;99.90
22795;DHT22;11564;50.920;11.612;2023-07-31T02:26:02;16.20;99.90
22795;DHT22;11564;50.920;11.612;2023-07-31T02:28:29;16.20;99.90
22795;DHT22;11564;50.920;11.612;2023-07-31T02:30:54;16.20;99.90
22795;DHT22;11564;50.920;11.612;2023-07-31T02:33:20;16.10;99.90
22795;DHT22;11564;50.920;11.612;2023-07-31T02:35:45;16.10;99.90
22795;DHT22;11564;50.920;11.612;2023-07-31T02:38:11;16.00;99.90
22795;DHT22;11564;50.920;11.612;2023-07-31T02:40:36;16.00;99.90
22795;DHT22;11564;50.920;11.612;2023-07-31T02:43:02;15.90;99.90
22795;DHT22;11564;50.920;11.612;2023-07-31T02:45:28;15.90;99.90
22795;DHT22;11564;50.920;11.612;2023-07-31T02:47:53;16.00;99.90
22795;DHT22;11564;50.920;11.612;2023-07-31T02:50:19;15.90;99.90
22795;DHT22;11564;50.920;11.612;2023-07-31T02:52:45;15.90;99.90
22795;DHT22;11564;50.920;11.612;2023-07-31T02:55:10;15.80;99.90
22795;DHT22;11564;50.920;11.612;2023-07-31T02:57:36;15.70;99.90
22795;DHT22;11564;50.920;11.612;2023-07-31T03:00:01;15.60;99.90
22795;DHT22;11564;50.920;11.612;2023-07-31T03:02:31;15.40;99.90
22795;DHT22;11564;50.920;11.612;2023-07-31T03:04:56;15.40;99.90
22795;DHT22;11564;50.920;11.612;2023-07-31T03:07:22;15.30;99.90
22795;DHT22;11564;50.920;11.612;2023-07-31T03:09:48;15.30;99.90
22795;DHT22;11564;50.920;11.612;2023-07-31T03:12:13;15.20;99.90
22795;DHT22;11564;50.920;11.612;2023-07-31T03:14:39;15.20;99.90
22795;DHT22;11564;50.920;11.612;2023-07-31T03:17:05;15.20;99.90
22795;DHT22;11564;50.920;11.612;2023-07-31T03:19:31;15.20;99.90
22795;DHT22;11564;50.920;11.612;2023-07-31T03:21:58;15.20;99.90
22795;DHT22;11564;50.920;11.612;2023-07-31T03:24:23;15.10;99.90
22795;DHT22;11564;50.920;11.612;2023-07-31T03:26:49;15.10;99.90
22795;DHT22;11564;50.920;11.612;2023-07-31T03:29:15;15.00;99.90
22795;DHT22;11564;50.920;11.612;2023-07-31T03:31:40;15.10;99.90
22795;DHT22;11564;50.920;11.612;2023-07-31T03:34:06;15.10;99.90
22795;DHT22;11564;50.920;11.612;2023-07-31T03:36:31;15.00;99.90
22795;DHT22;11564;50.920;11.612;2023-07-31T03:38:57;15.00;99.90
22795;DHT22;11564;50.920;11.612;2023-07-31T03:41:23;15.00;99.90
22795;DHT22;11564;50.920;11.612;2023-07-31T03:43:50;14.90;99.90
22795;DHT22;11564;50.920;11.612;2023-07-31T03:46:21;14.80;99.90
22795;DHT22;11564;50.920;11.612;2023-07-31T03:48:47;14.90;99.90
22795;DHT22;11564;50.920;11.612;2023-07-31T03:51:13;14.90;99.90
22795;DHT22;11564;50.920;11.612;2023-07-31T03:53:39;14.90;99.90
22795;DHT22;11564;50.920;11.612;2023-07-31T03:56:04;14.80;99.90
22795;DHT22;11564;50.920;11.612;2023-07-31T03:58:30;14.80;99.90
22795;DHT22;11564;50.920;11.612;2023-07-31T04:00:56;14.80;99.90
22795;DHT22;11564;50.920;11.612;2023-07-31T04:03:21;14.80;99.90
22795;DHT22;11564;50.920;11.612;2023-07-31T04:05:47;14.80;99.90
22795;DHT22;11564;50.920;11.612;2023-07-31T04:08:12;14.80;99.90
22795;DHT22;11564;50.920;11.612;2023-07-31T04:10:38;14.80;99.90
22795;DHT22;11564;50.920;11.612;2023-07-31T04:13:04;14.80;99.90
22795;DHT22;11564;50.920;11.612;2023-07-31T04:15:30;14.80;99.90
22795;DHT22;11564;50.920;11.612;2023-07-31T04:17:55;14.80;99.90
22795;DHT22;11564;50.920;11.612;2023-07-31T04:20:21;14.80;99.90
22795;DHT22;11564;50.920;11.612;2023-07-31T04:22:47;14.90;99.90
22795;DHT22;11564;50.920;11.612;2023-07-31T04:25:12;14.80;99.90
22795;DHT22;11564;50.920;11.612;2023-07-31T04:27:38;14.90;99.90
22795;DHT22;11564;50.920;11.612;2023-07-31T04:30:04;14.90;99.90
22795;DHT22;11564;50.920;11.612;2023-07-31T04:32:30;14.90;99.90
22795;DHT22;11564;50.920;11.612;2023-07-31T04:34:56;14.90;99.90
22795;DHT22;11564;50.920;11.612;2023-07-31T04:37:21;14.90;99.90
22795;DHT22;11564;50.920;11.612;2023-07-31T04:39:47;14.90;99.90
22795;DHT22;11564;50.920;11.612;2023-07-31T04:42:13;14.90;99.90
22795;DHT22;11564;50.920;11.612;2023-07-31T04:44:38;14.80;99.90
22795;DHT22;11564;50.920;11.612;2023-07-31T04:47:04;14.90;99.90
22795;DHT22;11564;50.920;11.612;2023-07-31T04:49:30;14.90;99.90
22795;DHT22;11564;50.920;11.612;2023-07-31T04:51:55;14.90;99.90
22795;DHT22;11564;50.920;11.612;2023-07-31T04:54:21;14.90;99.90
22795;DHT22;11564;50.920;11.612;2023-07-31T04:56:46;15.00;99.90
22795;DHT22;11564;50.920;11.612;2023-07-31T04:59:12;15.00;99.90
22795;DHT22;11564;50.920;11.612;2023-07-31T05:01:38;15.00;99.90
22795;DHT22;11564;50.920;11.612;2023-07-31T05:04:04;15.10;99.90
22795;DHT22;11564;50.920;11.612;2023-07-31T05:06:29;15.20;99.90
22795;DHT22;11564;50.920;11.612;2023-07-31T05:08:55;15.20;99.90
22795;DHT22;11564;50.920;11.612;2023-07-31T05:11:20;15.30;99.90
22795;DHT22;11564;50.920;11.612;2023-07-31T05:13:46;15.30;99.90
22795;DHT22;11564;50.920;11.612;2023-07-31T05:16:12;15.40;99.90
22795;DHT22;11564;50.920;11.612;2023-07-31T05:18:37;15.50;99.90
22795;DHT22;11564;50.920;11.612;2023-07-31T05:21:03;15.60;99.90
22795;DHT22;11564;50.920;11.612;2023-07-31T05:23:28;15.60;99.90
22795;DHT22;11564;50.920;11.612;2023-07-31T05:25:54;15.60;99.90
22795;DHT22;11564;50.920;11.612;2023-07-31T05:28:21;15.60;99.90
22795;DHT22;11564;50.920;11.612;2023-07-31T05:30:47;15.80;99.90
22795;DHT22;11564;50.920;11.612;2023-07-31T05:33:12;15.80;99.90
22795;DHT22;11564;50.920;11.612;2023-07-31T05:35:38;15.90;99.90
22795;DHT22;11564;50.920;11.612;2023-07-31T05:38:04;16.00;99.90
22795;DHT22;11564;50.920;11.612;2023-07-31T05:40:32;15.90;99.90
22795;DHT22;11564;50.920;11.612;2023-07-31T05:42:58;16.00;99.90
22795;DHT22;11564;50.920;11.612;2023-07-31T05:45:25;16.00;99.90
22795;DHT22;11564;50.920;11.612;2023-07-31T05:47:50;16.10;99.90
22795;DHT22;11564;50.920;11.612;2023-07-31T05:50:16;16.10;99.90
22795;DHT22;11564;50.920;11.612;2023-07-31T05:52:42;16.10;99.90
22795;DHT22;11564;50.920;11.612;2023-07-31T05:55:08;16.20;99.90
22795;DHT22;11564;50.920;11.612;2023-07-31T05:57:33;16.20;99.90
22795;DHT22;11564;50.920;11.612;2023-07-31T05:59:59;16.20;99.90
22795;DHT22;11564;50.920;11.612;2023-07-31T06:02:25;16.10;99.90
22795;DHT22;11564;50.920;11.612;2023-07-31T06:04:51;16.20;99.90
22795;DHT22;11564;50.920;11.612;2023-07-31T06:07:16;16.20;99.90
22795;DHT22;11564;50.920;11.612;2023-07-31T06:09:42;16.20;99.90
22795;DHT22;11564;50.920;11.612;2023-07-31T06:12:08;16.30;99.90
22795;DHT22;11564;50.920;11.612;2023-07-31T06:14:34;16.40;99.90
22795;DHT22;11564;50.920;11.612;2023-07-31T06:16:59;16.40;99.90
22795;DHT22;11564;50.920;11.612;2023-07-31T06:19:25;16.40;99.90
22795;DHT22;11564;50.920;11.612;2023-07-31T06:21:51;16.50;99.90
22795;DHT22;11564;50.920;11.612;2023-07-31T06:24:16;16.60;99.90
22795;DHT22;11564;50.920;11.612;2023-07-31T06:26:45;16.90;99.90
22795;DHT22;11564;50.920;11.612;2023-07-31T06:29:11;17.00;99.90
22795;DHT22;11564;50.920;11.612;2023-07-31T06:31:36;17.20;99.90
22795;DHT22;11564;50.920;11.612;2023-07-31T06:34:02;17.20;99.90
22795;DHT22;11564;50.920;11.612;2023-07-31T06:36:27;17.10;99.90
22795;DHT22;11564;50.920;11.612;2023-07-31T06:38:53;17.00;99.90
22795;DHT22;11564;50.920;11.612;2023-07-31T06:41:19;17.00;99.90
22795;DHT22;11564;50.920;11.612;2023-07-31T06:43:44;17.10;99.90
22795;DHT22;11564;50.920;11.612;2023-07-31T06:46:10;17.10;99.90
22795;DHT22;11564;50.920;11.612;2023-07-31T06:48:36;17.30;99.90
22795;DHT22;11564;50.920;11.612;2023-07-31T06:51:03;17.20;99.90
22795;DHT22;11564;50.920;11.612;2023-07-31T06:53:28;17.20;99.90
22795;DHT22;11564;50.920;11.612;2023-07-31T06:55:54;17.30;99.90
22795;DHT22;11564;50.920;11.612;2023-07-31T06:58:20;17.30;99.90
22795;DHT22;11564;50.920;11.612;2023-07-31T07:00:45;17.40;99.90
22795;DHT22;11564;50.920;11.612;2023-07-31T07:03:11;17.40;99.90
22795;DHT22;11564;50.920;11.612;2023-07-31T07:05:37;17.50;99.90
22795;DHT22;11564;50.920;11.612;2023-07-31T07:08:02;17.40;99.90
22795;DHT22;11564;50.920;11.612;2023-07-31T07:10:28;17.30;99.90
22795;DHT22;11564;50.920;11.612;2023-07-31T07:12:54;17.30;99.90
22795;DHT22;11564;50.920;11.612;2023-07-31T07:15:20;17.30;99.90
22795;DHT22;11564;50.920;11.612;2023-07-31T07:17:46;17.30;99.90
22795;DHT22;11564;50.920;11.612;2023-07-31T07:20:12;17.30;99.90
22795;DHT22;11564;50.920;11.612;2023-07-31T07:22:38;17.40;99.90
22795;DHT22;11564;50.920;11.612;2023-07-31T07:25:04;17.40;99.90
22795;DHT22;11564;50.920;11.612;2023-07-31T07:27:30;17.40;99.90
22795;DHT22;11564;50.920;11.612;2023-07-31T07:29:56;17.50;99.90
22795;DHT22;11564;50.920;11.612;2023-07-31T07:32:21;17.70;99.90
22795;DHT22;11564;50.920;11.612;2023-07-31T07:34:48;17.80;99.90
22795;DHT22;11564;50.920;11.612;2023-07-31T07:37:14;18.00;99.90
22795;DHT22;11564;50.920;11.612;2023-07-31T07:39:40;18.30;99.90
22795;DHT22;11564;50.920;11.612;2023-07-31T07:42:06;18.30;99.90
22795;DHT22;11564;50.920;11.612;2023-07-31T07:44:32;18.40;99.90
22795;DHT22;11564;50.920;11.612;2023-07-31T07:46:58;18.40;99.90
22795;DHT22;11564;50.920;11.612;2023-07-31T07:49:23;18.50;99.90
22795;DHT22;11564;50.920;11.612;2023-07-31T07:51:49;18.50;99.90
22795;DHT22;11564;50.920;11.612;2023-07-31T07:54:15;18.50;99.90
22795;DHT22;11564;50.920;11.612;2023-07-31T07:56:42;18.40;99.90
22795;DHT22;11564;50.920;11.612;2023-07-31T07:59:08;18.60;99.90
22795;DHT22;11564;50.920;11.612;2023-07-31T08:01:33;18.80;99.90
22795;DHT22;11564;50.920;11.612;2023-07-31T08:03:59;18.60;99.90
22795;DHT22;11564;50.920;11.612;2023-07-31T08:06:25;18.50;99.90
22795;DHT22;11564;50.920;11.612;2023-07-31T08:08:50;18.40;99.90
22795;DHT22;11564;50.920;11.612;2023-07-31T08:11:16;18.40;99.90
22795;DHT22;11564;50.920;11.612;2023-07-31T08:13:42;18.50;99.90
22795;DHT22;11564;50.920;11.612;2023-07-31T08:16:07;18.50;99.90
22795;DHT22;11564;50.920;11.612;2023-07-31T08:18:34;18.60;99.90
22795;DHT22;11564;50.920;11.612;2023-07-31T08:21:01;18.80;99.90
22795;DHT22;11564;50.920;11.612;2023-07-31T08:23:27;19.10;99.90
22795;DHT22;11564;50.920;11.612;2023-07-31T08:25:53;19.20;99.90
22795;DHT22;11564;50.920;11.612;2023-07-31T08:28:18;19.60;99.90
22795;DHT22;11564;50.920;11.612;2023-07-31T08:30:44;19.50;99.90
22795;DHT22;11564;50.920;11.612;2023-07-31T08:33:09;19.70;99.90
22795;DHT22;11564;50.920;11.612;2023-07-31T08:35:36;19.80;99.90
22795;DHT22;11564;50.920;11.612;2023-07-31T08:38:02;19.90;99.90
22795;DHT22;11564;50.920;11.612;2023-07-31T08:40:28;19.90;99.90
22795;DHT22;11564;50.920;11.612;2023-07-31T08:42:55;19.80;99.90
22795;DHT22;11564;50.920;11.612;2023-07-31T08:45:28;19.70;99.90
22795;DHT22;11564;50.920;11.612;2023-07-31T08:47:54;19.90;99.90
22795;DHT22;11564;50.920;11.612;2023-07-31T08:50:21;20.10;99.90
22795;DHT22;11564;50.920;11.612;2023-07-31T08:52:48;20.20;99.90
22795;DHT22;11564;50.920;11.612;2023-07-31T08:55:14;20.10;99.90
22795;DHT22;11564;50.920;11.612;2023-07-31T08:57:42;20.00;99.90
22795;DHT22;11564;50.920;11.612;2023-07-31T09:00:10;19.70;99.90
22795;DHT22;11564;50.920;11.612;2023-07-31T09:02:45;19.70;99.90
22795;DHT22;11564;50.920;11.612;2023-07-31T09:05:12;19.40;99.90
22795;DHT22;11564;50.920;11.612;2023-07-31T09:07:38;19.30;99.90
22795;DHT22;11564;50.920;11.612;2023-07-31T09:10:05;19.00;99.90
22795;DHT22;11564;50.920;11.612;2023-07-31T09:12:31;18.90;99.90
22795;DHT22;11564;50.920;11.612;2023-07-31T09:14:57;18.50;99.90
22795;DHT22;11564;50.920;11.612;2023-07-31T09:17:30;18.60;99.90
22795;DHT22;11564;50.920;11.612;2023-07-31T09:19:57;18.80;99.90
22795;DHT22;11564;50.920;11.612;2023-07-31T09:22:34;18.80;99.90
22795;DHT22;11564;50.920;11.612;2023-07-31T09:25:19;18.90;99.90
22795;DHT22;11564;50.920;11.612;2023-07-31T09:27:54;19.10;99.90
22795;DHT22;11564;50.920;11.612;2023-07-31T09:30:20;19.20;99.90
22795;DHT22;11564;50.920;11.612;2023-07-31T09:32:47;19.30;99.90
22795;DHT22;11564;50.920;11.612;2023-07-31T09:35:20;19.40;99.90
22795;DHT22;11564;50.920;11.612;2023-07-31T09:37:53;19.60;99.90
22795;DHT22;11564;50.920;11.612;2023-07-31T09:40:27;19.80;99.90
22795;DHT22;11564;50.920;11.612;2023-07-31T09:42:58;20.30;99.90
22795;DHT22;11564;50.920;11.612;2023-07-31T09:45:24;20.70;99.90
22795;DHT22;11564;50.920;11.612;2023-07-31T09:47:50;20.80;99.90
22795;DHT22;11564;50.920;11.612;2023-07-31T09:50:16;20.80;99.90
22795;DHT22;11564;50.920;11.612;2023-07-31T09:52:42;21.10;99.90
22795;DHT22;11564;50.920;11.612;2023-07-31T09:55:09;21.20;99.90
22795;DHT22;11564;50.920;11.612;2023-07-31T09:57:41;21.30;99.90
22795;DHT22;11564;50.920;11.612;2023-07-31T10:00:10;21.10;99.90
22795;DHT22;11564;50.920;11.612;2023-07-31T10:02:37;21.30;99.90
22795;DHT22;11564;50.920;11.612;2023-07-31T10:05:05;21.30;99.90
22795;DHT22;11564;50.920;11.612;2023-07-31T10:07:36;20.90;99.90
22795;DHT22;11564;50.920;11.612;2023-07-31T10:10:04;21.00;99.90
22795;DHT22;11564;50.920;11.612;2023-07-31T10:12:32;21.10;99.90
22795;DHT22;11564;50.920;11.612;2023-07-31T10:15:00;20.90;99.90
22795;DHT22;11564;50.920;11.612;2023-07-31T10:17:26;20.80;99.90
22795;DHT22;11564;50.920;11.612;2023-07-31T10:19:53;20.60;99.90
22795;DHT22;11564;50.920;11.612;2023-07-31T10:22:19;20.80;99.90
22795;DHT22;11564;50.920;11.612;2023-07-31T10:24:46;20.90;99.90
22795;DHT22;11564;50.920;11.612;2023-07-31T10:27:12;20.80;99.90
22795;DHT22;11564;50.920;11.612;2023-07-31T10:29:39;20.80;99.90
22795;DHT22;11564;50.920;11.612;2023-07-31T10:32:06;20.90;99.90
22795;DHT22;11564;50.920;11.612;2023-07-31T10:34:35;20.80;99.90
22795;DHT22;11564;50.920;11.612;2023-07-31T10:37:30;21.10;99.90
22795;DHT22;11564;50.920;11.612;2023-07-31T10:40:06;21.10;99.90
22795;DHT22;11564;50.920;11.612;2023-07-31T10:42:34;21.00;99.90
22795;DHT22;11564;50.920;11.612;2023-07-31T10:45:09;21.30;99.90
22795;DHT22;11564;50.920;11.612;2023-07-31T10:48:02;21.20;99.90
22795;DHT22;11564;50.920;11.612;2023-07-31T10:50:30;21.10;99.90
22795;DHT22;11564;50.920;11.612;2023-07-31T10:52:58;21.20;99.90
22795;DHT22;11564;50.920;11.612;2023-07-31T10:57:53;21.40;99.90
22795;DHT22;11564;50.920;11.612;2023-07-31T11:00:26;21.40;99.90
22795;DHT22;11564;50.920;11.612;2023-07-31T11:03:07;21.30;99.90
22795;DHT22;11564;50.920;11.612;2023-07-31T11:08:16;21.50;99.90
22795;DHT22;11564;50.920;11.612;2023-07-31T11:10:43;21.40;99.90
22795;DHT22;11564;50.920;11.612;2023-07-31T11:13:10;21.10;99.90
22795;DHT22;11564;50.920;11.612;2023-07-31T11:15:35;21.40;99.90
22795;DHT22;11564;50.920;11.612;2023-07-31T11:18:02;21.20;99.90
22795;DHT22;11564;50.920;11.612;2023-07-31T11:20:35;21.10;99.90
22795;DHT22;11564;50.920;11.612;2023-07-31T11:23:07;21.10;99.90
22795;DHT22;11564;50.920;11.612;2023-07-31T11:25:33;20.70;99.90
22795;DHT22;11564;50.920;11.612;2023-07-31T11:28:06;20.60;99.90
22795;DHT22;11564;50.920;11.612;2023-07-31T11:30:33;20.60;99.90
22795;DHT22;11564;50.920;11.612;2023-07-31T11:33:00;20.50;99.90
22795;DHT22;11564;50.920;11.612;2023-07-31T11:35:32;20.40;99.90
22795;DHT22;11564;50.920;11.612;2023-07-31T11:37:59;20.60;99.90
22795;DHT22;11564;50.920;11.612;2023-07-31T11:40:25;20.70;99.90
22795;DHT22;11564;50.920;11.612;2023-07-31T11:43:03;21.00;99.90
22795;DHT22;11564;50.920;11.612;2023-07-31T11:45:29;21.00;99.90
22795;DHT22;11564;50.920;11.612;2023-07-31T11:47:56;21.00;99.90
22795;DHT22;11564;50.920;11.612;2023-07-31T11:50:23;20.90;99.90
22795;DHT22;11564;50.920;11.612;2023-07-31T11:52:57;21.10;99.90
22795;DHT22;11564;50.920;11.612;2023-07-31T11:55:24;21.00;99.90
22795;DHT22;11564;50.920;11.612;2023-07-31T11:57:52;20.70;99.90
22795;DHT22;11564;50.920;11.612;2023-07-31T12:00:18;20.50;99.90
22795;DHT22;11564;50.920;11.612;2023-07-31T12:02:45;20.70;99.90
22795;DHT22;11564;50.920;11.612;2023-07-31T12:05:12;21.10;99.90
22795;DHT22;11564;50.920;11.612;2023-07-31T12:07:50;21.40;99.90
22795;DHT22;11564;50.920;11.612;2023-07-31T12:10:32;21.70;99.90
22795;DHT22;11564;50.920;11.612;2023-07-31T12:12:59;21.90;99.90
22795;DHT22;11564;50.920;11.612;2023-07-31T12:15:38;22.20;99.90
22795;DHT22;11564;50.920;11.612;2023-07-31T12:18:10;22.70;99.90
22795;DHT22;11564;50.920;11.612;2023-07-31T12:20:44;23.20;99.90
22795;DHT22;11564;50.920;11.612;2023-07-31T12:23:25;23.50;99.90
22795;DHT22;11564;50.920;11.612;2023-07-31T12:26:04;23.60;99.90
22795;DHT22;11564;50.920;11.612;2023-07-31T12:28:34;23.50;99.90
22795;DHT22;11564;50.920;11.612;2023-07-31T12:31:00;23.40;99.90
22795;DHT22;11564;50.920;11.612;2023-07-31T12:33:34;23.80;99.90
22795;DHT22;11564;50.920;11.612;2023-07-31T12:36:02;23.70;99.90
22795;DHT22;11564;50.920;11.612;2023-07-31T12:38:28;24.20;99.90
22795;DHT22;11564;50.920;11.612;2023-07-31T12:40:53;23.90;99.90
22795;DHT22;11564;50.920;11.612;2023-07-31T12:43:19;23.40;99.90
22795;DHT22;11564;50.920;11.612;2023-07-31T12:45:45;23.00;99.90
22795;DHT22;11564;50.920;11.612;2023-07-31T12:48:10;22.70;99.90
22795;DHT22;11564;50.920;11.612;2023-07-31T12:50:36;22.90;99.90
22795;DHT22;11564;50.920;11.612;2023-07-31T12:53:02;23.30;99.90
22795;DHT22;11564;50.920;11.612;2023-07-31T12:55:32;23.80;99.90
22795;DHT22;11564;50.920;11.612;2023-07-31T12:58:01;23.30;99.90
22795;DHT22;11564;50.920;11.612;2023-07-31T13:00:26;23.40;99.90
22795;DHT22;11564;50.920;11.612;2023-07-31T13:02:52;23.70;99.90
22795;DHT22;11564;50.920;11.612;2023-07-31T13:05:19;23.80;99.90
22795;DHT22;11564;50.920;11.612;2023-07-31T13:07:48;23.80;99.90
22795;DHT22;11564;50.920;11.612;2023-07-31T13:10:14;23.80;99.90
22795;DHT22;11564;50.920;11.612;2023-07-31T13:12:39;24.10;99.90
22795;DHT22;11564;50.920;11.612;2023-07-31T13:15:06;24.20;99.90
22795;DHT22;11564;50.920;11.612;2023-07-31T13:17:32;23.60;99.90
22795;DHT22;11564;50.920;11.612;2023-07-31T13:19:58;23.70;99.90
22795;DHT22;11564;50.920;11.612;2023-07-31T13:22:24;24.30;99.90
22795;DHT22;11564;50.920;11.612;2023-07-31T13:24:50;24.00;99.90
22795;DHT22;11564;50.920;11.612;2023-07-31T13:27:16;23.90;99.90
22795;DHT22;11564;50.920;11.612;2023-07-31T13:29:45;23.60;99.90
22795;DHT22;11564;50.920;11.612;2023-07-31T13:32:11;23.30;99.90
22795;DHT22;11564;50.920;11.612;2023-07-31T13:34:37;22.60;99.90
22795;DHT22;11564;50.920;11.612;2023-07-31T13:37:02;22.30;99.90
22795;DHT22;11564;50.920;11.612;2023-07-31T13:39:28;22.10;99.90
22795;DHT22;11564;50.920;11.612;2023-07-31T13:41:54;22.00;99.90
22795;DHT22;11564;50.920;11.612;2023-07-31T13:44:20;22.00;99.90
22795;DHT22;11564;50.920;11.612;2023-07-31T13:46:46;22.00;99.90
22795;DHT22;11564;50.920;11.612;2023-07-31T13:49:11;21.80;99.90
22795;DHT22;11564;50.920;11.612;2023-07-31T13:51:37;22.00;99.90
22795;DHT22;11564;50.920;11.612;2023-07-31T13:54:04;22.20;99.90
22795;DHT22;11564;50.920;11.612;2023-07-31T13:56:31;22.20;99.90
22795;DHT22;11564;50.920;11.612;2023-07-31T13:58:57;22.20;99.90
22795;DHT22;11564;50.920;11.612;2023-07-31T14:01:22;22.30;99.90
22795;DHT22;11564;50.920;11.612;2023-07-31T14:03:48;22.20;99.90
22795;DHT22;11564;50.920;11.612;2023-07-31T14:06:14;21.70;99.90
22795;DHT22;11564;50.920;11.612;2023-07-31T14:08:39;21.90;99.90
22795;DHT22;11564;50.920;11.612;2023-07-31T14:11:05;21.70;99.90
22795;DHT22;11564;50.920;11.612;2023-07-31T14:13:31;21.60;99.90
22795;DHT22;11564;50.920;11.612;2023-07-31T14:15:57;21.70;99.90
22795;DHT22;11564;50.920;11.612;2023-07-31T14:18:22;21.90;99.90
22795;DHT22;11564;50.920;11.612;2023-07-31T14:20:48;22.40;99.90
22795;DHT22;11564;50.920;11.612;2023-07-31T14:23:13;22.90;99.90
22795;DHT22;11564;50.920;11.612;2023-07-31T14:25:39;23.30;99.90
22795;DHT22;11564;50.920;11.612;2023-07-31T14:28:05;24.90;99.40
22795;DHT22;11564;50.920;11.612;2023-07-31T14:30:30;25.80;98.40
22795;DHT22;11564;50.920;11.612;2023-07-31T14:32:56;25.20;98.70
22795;DHT22;11564;50.920;11.612;2023-07-31T14:35:21;24.80;99.00
22795;DHT22;11564;50.920;11.612;2023-07-31T14:37:47;25.20;98.90
22795;DHT22;11564;50.920;11.612;2023-07-31T14:40:13;25.80;98.90
22795;DHT22;11564;50.920;11.612;2023-07-31T14:42:39;25.00;98.50
22795;DHT22;11564;50.920;11.612;2023-07-31T14:45:06;25.50;98.40
22795;DHT22;11564;50.920;11.612;2023-07-31T14:47:32;25.50;98.00
22795;DHT22;11564;50.920;11.612;2023-07-31T14:49:59;25.50;97.80
22795;DHT22;11564;50.920;11.612;2023-07-31T14:52:25;24.10;98.40
22795;DHT22;11564;50.920;11.612;2023-07-31T14:54:51;23.50;99.40
22795;DHT22;11564;50.920;11.612;2023-07-31T14:57:17;23.60;99.80
22795;DHT22;11564;50.920;11.612;2023-07-31T14:59:42;23.40;99.40
22795;DHT22;11564;50.920;11.612;2023-07-31T15:02:11;23.70;99.30
22795;DHT22;11564;50.920;11.612;2023-07-31T15:04:37;23.40;99.70
22795;DHT22;11564;50.920;11.612;2023-07-31T15:07:03;23.10;99.90
22795;DHT22;11564;50.920;11.612;2023-07-31T15:09:29;22.70;99.90
22795;DHT22;11564;50.920;11.612;2023-07-31T15:11:55;22.90;99.90
22795;DHT22;11564;50.920;11.612;2023-07-31T15:14:21;22.70;99.90
22795;DHT22;11564;50.920;11.612;2023-07-31T15:16:47;22.70;99.90
22795;DHT22;11564;50.920;11.612;2023-07-31T15:19:12;22.40;99.90
22795;DHT22;11564;50.920;11.612;2023-07-31T15:21:38;22.40;99.90